Buoy 13570

sailwx.info

Track history (hours):
 
Tides and Currents Weather Stations Pressure Air Temp Water Temp Dewpoint Dewpoint Depression Visibility Wind Speed Wind Dir Waves Ship Positions

Drifting buoy 13570

Last reported at 2015-Aug-29 04:00 UTC. Time now 2015-Aug-29 09:30 UTC.
Position N 35°39' W 017°17'.

Barometer 1015.2 mb
Water temperature 24.2 ° C

Date/timePositionNaut miles runAvg speedWind from/ knotsBaromVisibWave heightAir tempDewpointWater temp
2015-Aug-29 04:00N 35°39' W 017°17'0 0.0 1015.2 24.2
2015-Aug-29 01:00N 35°39' W 017°17'1 0.2 1016.4 24.2
2015-Aug-28 21:00N 35°38' W 017°17'2 0.1 1016.9 24.2
2015-Aug-28 07:00N 35°38' W 017°20'0 0.2 1018.0 23.9
2015-Aug-28 05:00N 35°38' W 017°20'0 0.2 1017.5 24.0
2015-Aug-28 04:00N 35°38' W 017°20'1 0.7 1017.6 24.0
2015-Aug-28 02:00N 35°36' W 017°21'0 0.0 1018.6 24.0
2015-Aug-27 23:00N 35°36' W 017°21'1 1.2 1019.5 24.0
2015-Aug-27 22:00N 35°37' W 017°20'1 0.3 1019.5 24.0
2015-Aug-27 19:00N 35°37' W 017°21'1 0.3 1018.5 24.1
2015-Aug-27 17:00N 35°36' W 017°22'0 0.2 1018.5 24.3
2015-Aug-27 16:00N 35°36' W 017°21'1 0.2 1018.6 24.3
2015-Aug-27 09:00N 35°35' W 017°22'0 0.1 1018.9 23.9
2015-Aug-27 07:00N 35°35' W 017°22'1 0.2 1018.3 23.9
2015-Aug-27 03:00N 35°35' W 017°23'2 0.2 1018.4 23.9
2015-Aug-26 20:00N 35°34' W 017°24'0 0.1 1019.4 24.1
2015-Aug-26 17:00N 35°34' W 017°24'0 0.1 1019.5 24.3
2015-Aug-26 14:00N 35°33' W 017°25'1 0.1 1020.0 24.1
2015-Aug-26 07:00N 35°33' W 017°24'0 0.1 1019.6 23.9
2015-Aug-26 06:00N 35°33' W 017°24'0 0.1 1019.5 23.9
2015-Aug-26 03:00N 35°32' W 017°23'1 0.7 1019.8 23.9
2015-Aug-26 02:00N 35°32' W 017°24'1 0.1 1020.3 23.9
2015-Aug-25 21:00N 35°32' W 017°23'0 0.5 1021.5 24.3
2015-Aug-25 20:00N 35°32' W 017°23'0 0.0 1020.9 24.4
2015-Aug-25 17:00N 35°32' W 017°23'0 0.1 1020.7 24.7
2015-Aug-25 14:00N 35°32' W 017°23'1 0.5 1021.5 25.1
2015-Aug-25 11:00N 35°32' W 017°22'0 0.1 1022.2 24.0
2015-Aug-25 06:00N 35°32' W 017°22'1 0.6 1021.1 23.8
2015-Aug-25 05:00N 35°32' W 017°21'1 0.2 1021.0 23.8
2015-Aug-25 02:00N 35°31' W 017°21'0 0.1 1021.5 24.3
2015-Aug-24 18:00N 35°31' W 017°21'2 0.6 1021.5 25.3
2015-Aug-24 15:00N 35°29' W 017°20'0 0.0 1021.8 24.8
2015-Aug-24 14:00N 35°29' W 017°20'1 0.2 1021.9 24.4
2015-Aug-24 11:00N 35°30' W 017°19'0 0.1 1022.1 23.6
2015-Aug-24 08:00N 35°30' W 017°19'0 0.2 1020.8 23.6
2015-Aug-24 06:00N 35°29' W 017°20'0 0.3 1020.5 23.6
2015-Aug-24 05:00N 35°29' W 017°20'2 0.2 1020.3 23.6
2015-Aug-23 21:00N 35°28' W 017°19'0 0.0 1021.5 23.7
2015-Aug-23 20:00N 35°28' W 017°19'0 0.1 1021.1 23.7
2015-Aug-23 18:00N 35°27' W 017°19'1 0.2 1021.0 23.7
2015-Aug-23 14:00N 35°28' W 017°20'2 0.2 1021.5 23.7
2015-Aug-23 06:00N 35°26' W 017°21'1 0.2 1021.6 23.6
2015-Aug-22 23:00N 35°25' W 017°21'0 0.2 1023.1 23.8
2015-Aug-22 20:00N 35°25' W 017°22'1 0.1 1022.4 23.8
2015-Aug-22 11:00N 35°24' W 017°22'1 0.6 1023.4 23.7
2015-Aug-22 10:00N 35°24' W 017°22'1 0.4 1023.2 23.7
2015-Aug-22 08:00N 35°23' W 017°23'0 0.3 1022.8 23.7
2015-Aug-22 07:00N 35°23' W 017°23'1 0.2 1022.9 23.7
2015-Aug-22 04:00N 35°23' W 017°23'1 0.5 1023.2 23.7
2015-Aug-22 03:00N 35°22' W 017°23'1 0.1 1023.4 23.7
2015-Aug-21 21:00N 35°23' W 017°24'1 0.3 1024.7 23.9
2015-Aug-21 17:00N 35°22' W 017°25'1 0.3 1024.0 24.1
2015-Aug-21 13:00N 35°21' W 017°26'1 0.7 1024.8 23.8
2015-Aug-21 12:00N 35°20' W 017°25'1 0.2 1025.1 23.8
2015-Aug-21 08:00N 35°20' W 017°25'0 0.1 1024.5 23.7
2015-Aug-21 05:00N 35°20' W 017°25'1 0.1 1023.1 23.7
2015-Aug-20 23:00N 35°19' W 017°25'1 0.5 1024.6 23.8
2015-Aug-20 22:00N 35°18' W 017°25'2 0.5 1024.8 23.8
2015-Aug-20 18:00N 35°16' W 017°25'0 0.1 1023.2 23.9
2015-Aug-20 15:00N 35°17' W 017°25'1 0.5 1023.5 23.8
2015-Aug-20 14:00N 35°16' W 017°25'1 0.3 1023.9 23.8
2015-Aug-20 10:00N 35°15' W 017°25'0 0.5 1023.8 23.7
2015-Aug-20 09:00N 35°14' W 017°26'2 0.5 1023.4 23.7
2015-Aug-20 05:00N 35°13' W 017°25'4 0.3 1021.9 23.8
2015-Aug-19 18:00N 35°09' W 017°26'1 0.8 1021.2 23.8
2015-Aug-19 17:00N 35°09' W 017°26'1 0.2 1021.2 23.8
2015-Aug-19 11:00N 35°08' W 017°25'2 0.4 1022.2 23.7
2015-Aug-19 06:00N 35°06' W 017°25'   1020.3 23.7
Track history (hours):
 
Tides and Currents Weather Stations Pressure Air Temp Water Temp Dewpoint Dewpoint Depression Visibility Wind Speed Wind Dir Waves Ship Positions

Drifting buoy 13570

Last reported at 2015-Aug-29 04:00 UTC. Time now 2015-Aug-29 09:30 UTC.
Position N 35°39' W 017°17'.

Barometer 1015.2 mb
Water temperature 24.2 ° C

Date/timePositionNaut miles runAvg speedWind from/ knotsBaromVisibWave heightAir tempDewpointWater temp
2015-Aug-29 04:00N 35°39' W 017°17'0 0.0 1015.2 24.2
2015-Aug-29 01:00N 35°39' W 017°17'1 0.2 1016.4 24.2
2015-Aug-28 21:00N 35°38' W 017°17'2 0.1 1016.9 24.2
2015-Aug-28 07:00N 35°38' W 017°20'0 0.2 1018.0 23.9
2015-Aug-28 05:00N 35°38' W 017°20'0 0.2 1017.5 24.0
2015-Aug-28 04:00N 35°38' W 017°20'1 0.7 1017.6 24.0
2015-Aug-28 02:00N 35°36' W 017°21'0 0.0 1018.6 24.0
2015-Aug-27 23:00N 35°36' W 017°21'1 1.2 1019.5 24.0
2015-Aug-27 22:00N 35°37' W 017°20'1 0.3 1019.5 24.0
2015-Aug-27 19:00N 35°37' W 017°21'1 0.3 1018.5 24.1
2015-Aug-27 17:00N 35°36' W 017°22'0 0.2 1018.5 24.3
2015-Aug-27 16:00N 35°36' W 017°21'1 0.2 1018.6 24.3
2015-Aug-27 09:00N 35°35' W 017°22'0 0.1 1018.9 23.9
2015-Aug-27 07:00N 35°35' W 017°22'1 0.2 1018.3 23.9
2015-Aug-27 03:00N 35°35' W 017°23'2 0.2 1018.4 23.9
2015-Aug-26 20:00N 35°34' W 017°24'0 0.1 1019.4 24.1
2015-Aug-26 17:00N 35°34' W 017°24'0 0.1 1019.5 24.3
2015-Aug-26 14:00N 35°33' W 017°25'1 0.1 1020.0 24.1
2015-Aug-26 07:00N 35°33' W 017°24'0 0.1 1019.6 23.9
2015-Aug-26 06:00N 35°33' W 017°24'0 0.1 1019.5 23.9
2015-Aug-26 03:00N 35°32' W 017°23'1 0.7 1019.8 23.9
2015-Aug-26 02:00N 35°32' W 017°24'1 0.1 1020.3 23.9
2015-Aug-25 21:00N 35°32' W 017°23'0 0.5 1021.5 24.3
2015-Aug-25 20:00N 35°32' W 017°23'0 0.0 1020.9 24.4
2015-Aug-25 17:00N 35°32' W 017°23'0 0.1 1020.7 24.7
2015-Aug-25 14:00N 35°32' W 017°23'1 0.5 1021.5 25.1
2015-Aug-25 11:00N 35°32' W 017°22'0 0.1 1022.2 24.0
2015-Aug-25 06:00N 35°32' W 017°22'1 0.6 1021.1 23.8
2015-Aug-25 05:00N 35°32' W 017°21'1 0.2 1021.0 23.8
2015-Aug-25 02:00N 35°31' W 017°21'0 0.1 1021.5 24.3
2015-Aug-24 18:00N 35°31' W 017°21'2 0.6 1021.5 25.3
2015-Aug-24 15:00N 35°29' W 017°20'0 0.0 1021.8 24.8
2015-Aug-24 14:00N 35°29' W 017°20'1 0.2 1021.9 24.4
2015-Aug-24 11:00N 35°30' W 017°19'0 0.1 1022.1 23.6
2015-Aug-24 08:00N 35°30' W 017°19'0 0.2 1020.8 23.6
2015-Aug-24 06:00N 35°29' W 017°20'0 0.3 1020.5 23.6
2015-Aug-24 05:00N 35°29' W 017°20'2 0.2 1020.3 23.6
2015-Aug-23 21:00N 35°28' W 017°19'0 0.0 1021.5 23.7
2015-Aug-23 20:00N 35°28' W 017°19'0 0.1 1021.1 23.7
2015-Aug-23 18:00N 35°27' W 017°19'1 0.2 1021.0 23.7
2015-Aug-23 14:00N 35°28' W 017°20'2 0.2 1021.5 23.7
2015-Aug-23 06:00N 35°26' W 017°21'1 0.2 1021.6 23.6
2015-Aug-22 23:00N 35°25' W 017°21'0 0.2 1023.1 23.8
2015-Aug-22 20:00N 35°25' W 017°22'1 0.1 1022.4 23.8
2015-Aug-22 11:00N 35°24' W 017°22'1 0.6 1023.4 23.7
2015-Aug-22 10:00N 35°24' W 017°22'1 0.4 1023.2 23.7
2015-Aug-22 08:00N 35°23' W 017°23'0 0.3 1022.8 23.7
2015-Aug-22 07:00N 35°23' W 017°23'1 0.2 1022.9 23.7
2015-Aug-22 04:00N 35°23' W 017°23'1 0.5 1023.2 23.7
2015-Aug-22 03:00N 35°22' W 017°23'1 0.1 1023.4 23.7
2015-Aug-21 21:00N 35°23' W 017°24'1 0.3 1024.7 23.9
2015-Aug-21 17:00N 35°22' W 017°25'1 0.3 1024.0 24.1
2015-Aug-21 13:00N 35°21' W 017°26'1 0.7 1024.8 23.8
2015-Aug-21 12:00N 35°20' W 017°25'1 0.2 1025.1 23.8
2015-Aug-21 08:00N 35°20' W 017°25'0 0.1 1024.5 23.7
2015-Aug-21 05:00N 35°20' W 017°25'1 0.1 1023.1 23.7
2015-Aug-20 23:00N 35°19' W 017°25'1 0.5 1024.6 23.8
2015-Aug-20 22:00N 35°18' W 017°25'2 0.5 1024.8 23.8
2015-Aug-20 18:00N 35°16' W 017°25'0 0.1 1023.2 23.9
2015-Aug-20 15:00N 35°17' W 017°25'1 0.5 1023.5 23.8
2015-Aug-20 14:00N 35°16' W 017°25'1 0.3 1023.9 23.8
2015-Aug-20 10:00N 35°15' W 017°25'0 0.5 1023.8 23.7
2015-Aug-20 09:00N 35°14' W 017°26'2 0.5 1023.4 23.7
2015-Aug-20 05:00N 35°13' W 017°25'4 0.3 1021.9 23.8
2015-Aug-19 18:00N 35°09' W 017°26'1 0.8 1021.2 23.8
2015-Aug-19 17:00N 35°09' W 017°26'1 0.2 1021.2 23.8
2015-Aug-19 11:00N 35°08' W 017°25'2 0.4 1022.2 23.7
2015-Aug-19 06:00N 35°06' W 017°25'   1020.3 23.7

Dump ship's entire track history